sensor_id;sensor_type;location;lat;lon;timestamp;P1;durP1;ratioP1;P2;durP2;ratioP2
7767;SDS011;3928;42.626;23.382;2023-02-28T00:01:05;20.93;;;14.83;;
7767;SDS011;3928;42.626;23.382;2023-02-28T00:03:32;22.00;;;14.23;;
7767;SDS011;3928;42.626;23.382;2023-02-28T00:06:00;23.70;;;14.23;;
7767;SDS011;3928;42.626;23.382;2023-02-28T00:08:27;18.77;;;12.73;;
7767;SDS011;3928;42.626;23.382;2023-02-28T00:10:55;19.00;;;14.10;;
7767;SDS011;3928;42.626;23.382;2023-02-28T00:13:22;19.13;;;13.17;;
7767;SDS011;3928;42.626;23.382;2023-02-28T00:15:57;18.63;;;12.93;;
7767;SDS011;3928;42.626;23.382;2023-02-28T00:18:25;17.37;;;13.97;;
7767;SDS011;3928;42.626;23.382;2023-02-28T00:20:52;18.17;;;13.10;;
7767;SDS011;3928;42.626;23.382;2023-02-28T00:23:19;20.03;;;12.97;;
7767;SDS011;3928;42.626;23.382;2023-02-28T00:25:45;18.67;;;13.43;;
7767;SDS011;3928;42.626;23.382;2023-02-28T00:28:14;20.13;;;13.77;;
7767;SDS011;3928;42.626;23.382;2023-02-28T00:30:40;18.53;;;12.87;;
7767;SDS011;3928;42.626;23.382;2023-02-28T00:33:07;21.13;;;15.07;;
7767;SDS011;3928;42.626;23.382;2023-02-28T00:35:34;17.33;;;13.47;;
7767;SDS011;3928;42.626;23.382;2023-02-28T00:38:01;22.67;;;14.03;;
7767;SDS011;3928;42.626;23.382;2023-02-28T00:40:28;20.27;;;15.20;;
7767;SDS011;3928;42.626;23.382;2023-02-28T00:42:55;23.53;;;15.03;;
7767;SDS011;3928;42.626;23.382;2023-02-28T00:45:23;21.70;;;15.77;;
7767;SDS011;3928;42.626;23.382;2023-02-28T00:47:50;23.23;;;15.93;;
7767;SDS011;3928;42.626;23.382;2023-02-28T00:50:17;21.33;;;15.90;;
7767;SDS011;3928;42.626;23.382;2023-02-28T00:52:45;20.10;;;15.07;;
7767;SDS011;3928;42.626;23.382;2023-02-28T00:55:12;23.40;;;16.20;;
7767;SDS011;3928;42.626;23.382;2023-02-28T00:57:39;20.43;;;15.33;;
7767;SDS011;3928;42.626;23.382;2023-02-28T01:00:06;23.40;;;15.57;;
7767;SDS011;3928;42.626;23.382;2023-02-28T01:02:36;24.63;;;18.53;;
7767;SDS011;3928;42.626;23.382;2023-02-28T01:05:03;28.87;;;18.63;;
7767;SDS011;3928;42.626;23.382;2023-02-28T01:07:30;26.03;;;18.50;;
7767;SDS011;3928;42.626;23.382;2023-02-28T01:09:57;24.90;;;18.00;;
7767;SDS011;3928;42.626;23.382;2023-02-28T01:12:23;28.87;;;18.67;;
7767;SDS011;3928;42.626;23.382;2023-02-28T01:14:50;26.70;;;18.20;;
7767;SDS011;3928;42.626;23.382;2023-02-28T01:17:17;23.70;;;16.50;;
7767;SDS011;3928;42.626;23.382;2023-02-28T01:19:45;25.07;;;18.53;;
7767;SDS011;3928;42.626;23.382;2023-02-28T01:22:12;22.73;;;16.60;;
7767;SDS011;3928;42.626;23.382;2023-02-28T01:24:39;23.87;;;16.93;;
7767;SDS011;3928;42.626;23.382;2023-02-28T01:27:05;24.50;;;16.17;;
7767;SDS011;3928;42.626;23.382;2023-02-28T01:29:32;25.73;;;16.43;;
7767;SDS011;3928;42.626;23.382;2023-02-28T01:31:59;23.43;;;16.80;;
7767;SDS011;3928;42.626;23.382;2023-02-28T01:34:26;25.03;;;17.03;;
7767;SDS011;3928;42.626;23.382;2023-02-28T01:36:54;26.10;;;18.13;;
7767;SDS011;3928;42.626;23.382;2023-02-28T01:39:20;23.27;;;16.73;;
7767;SDS011;3928;42.626;23.382;2023-02-28T01:41:48;21.90;;;16.60;;
7767;SDS011;3928;42.626;23.382;2023-02-28T01:47:19;23.17;;;16.30;;
7767;SDS011;3928;42.626;23.382;2023-02-28T01:49:46;21.23;;;16.20;;
7767;SDS011;3928;42.626;23.382;2023-02-28T01:52:15;21.23;;;16.23;;
7767;SDS011;3928;42.626;23.382;2023-02-28T01:54:43;23.43;;;16.10;;
7767;SDS011;3928;42.626;23.382;2023-02-28T01:57:16;20.27;;;15.20;;
7767;SDS011;3928;42.626;23.382;2023-02-28T01:59:46;21.30;;;15.60;;
7767;SDS011;3928;42.626;23.382;2023-02-28T02:02:17;26.70;;;17.90;;
7767;SDS011;3928;42.626;23.382;2023-02-28T02:04:50;24.30;;;16.97;;
7767;SDS011;3928;42.626;23.382;2023-02-28T02:07:21;28.13;;;17.73;;
7767;SDS011;3928;42.626;23.382;2023-02-28T02:09:56;25.13;;;17.73;;
7767;SDS011;3928;42.626;23.382;2023-02-28T02:12:27;26.83;;;17.43;;
7767;SDS011;3928;42.626;23.382;2023-02-28T02:15:05;26.60;;;18.13;;
7767;SDS011;3928;42.626;23.382;2023-02-28T02:17:38;27.40;;;18.93;;
7767;SDS011;3928;42.626;23.382;2023-02-28T02:32:26;35.27;;;20.63;;
7767;SDS011;3928;42.626;23.382;2023-02-28T02:35:12;30.33;;;19.90;;
7767;SDS011;3928;42.626;23.382;2023-02-28T02:37:43;33.67;;;20.10;;
7767;SDS011;3928;42.626;23.382;2023-02-28T02:40:17;29.33;;;19.17;;
7767;SDS011;3928;42.626;23.382;2023-02-28T02:42:49;32.83;;;19.97;;
7767;SDS011;3928;42.626;23.382;2023-02-28T02:45:23;31.80;;;20.87;;
7767;SDS011;3928;42.626;23.382;2023-02-28T02:47:53;32.17;;;20.07;;
7767;SDS011;3928;42.626;23.382;2023-02-28T02:50:24;32.60;;;19.57;;
7767;SDS011;3928;42.626;23.382;2023-02-28T02:52:55;27.20;;;19.10;;
7767;SDS011;3928;42.626;23.382;2023-02-28T02:55:26;28.13;;;19.20;;
7767;SDS011;3928;42.626;23.382;2023-02-28T02:57:54;29.23;;;19.23;;
7767;SDS011;3928;42.626;23.382;2023-02-28T03:00:26;25.47;;;17.97;;
7767;SDS011;3928;42.626;23.382;2023-02-28T03:02:59;26.77;;;19.03;;
7767;SDS011;3928;42.626;23.382;2023-02-28T03:05:31;28.43;;;18.33;;
7767;SDS011;3928;42.626;23.382;2023-02-28T03:08:05;25.90;;;19.43;;
7767;SDS011;3928;42.626;23.382;2023-02-28T03:10:34;27.70;;;18.53;;
7767;SDS011;3928;42.626;23.382;2023-02-28T03:13:10;28.60;;;18.97;;
7767;SDS011;3928;42.626;23.382;2023-02-28T03:15:47;23.20;;;17.23;;
7767;SDS011;3928;42.626;23.382;2023-02-28T03:18:24;27.80;;;19.10;;
7767;SDS011;3928;42.626;23.382;2023-02-28T03:21:00;27.47;;;18.73;;
7767;SDS011;3928;42.626;23.382;2023-02-28T03:23:37;31.13;;;19.20;;
7767;SDS011;3928;42.626;23.382;2023-02-28T03:26:11;33.37;;;20.73;;
7767;SDS011;3928;42.626;23.382;2023-02-28T03:28:47;40.20;;;23.43;;
7767;SDS011;3928;42.626;23.382;2023-02-28T03:31:20;46.43;;;22.40;;
7767;SDS011;3928;42.626;23.382;2023-02-28T03:33:55;33.40;;;21.67;;
7767;SDS011;3928;42.626;23.382;2023-02-28T03:36:28;37.67;;;21.60;;
7767;SDS011;3928;42.626;23.382;2023-02-28T03:38:57;35.70;;;22.70;;
7767;SDS011;3928;42.626;23.382;2023-02-28T03:41:29;38.87;;;22.33;;
7767;SDS011;3928;42.626;23.382;2023-02-28T03:44:03;43.53;;;24.00;;
7767;SDS011;3928;42.626;23.382;2023-02-28T03:46:34;41.77;;;23.63;;
7767;SDS011;3928;42.626;23.382;2023-02-28T03:49:07;41.20;;;23.70;;
7767;SDS011;3928;42.626;23.382;2023-02-28T03:51:41;45.73;;;25.33;;
7767;SDS011;3928;42.626;23.382;2023-02-28T03:54:12;38.07;;;24.20;;
7767;SDS011;3928;42.626;23.382;2023-02-28T03:56:43;39.70;;;24.10;;
7767;SDS011;3928;42.626;23.382;2023-02-28T03:59:16;42.07;;;25.30;;
7767;SDS011;3928;42.626;23.382;2023-02-28T04:01:48;42.30;;;24.63;;
7767;SDS011;3928;42.626;23.382;2023-02-28T04:04:17;45.50;;;25.43;;
7767;SDS011;3928;42.626;23.382;2023-02-28T04:06:46;40.57;;;24.53;;
7767;SDS011;3928;42.626;23.382;2023-02-28T04:09:16;43.17;;;24.43;;
7767;SDS011;3928;42.626;23.382;2023-02-28T04:11:44;44.70;;;24.53;;
7767;SDS011;3928;42.626;23.382;2023-02-28T04:14:16;40.60;;;23.33;;
7767;SDS011;3928;42.626;23.382;2023-02-28T04:16:43;43.70;;;24.80;;
7767;SDS011;3928;42.626;23.382;2023-02-28T04:19:11;42.17;;;24.50;;
7767;SDS011;3928;42.626;23.382;2023-02-28T04:21:40;44.20;;;25.13;;
7767;SDS011;3928;42.626;23.382;2023-02-28T04:24:10;55.40;;;23.40;;
7767;SDS011;3928;42.626;23.382;2023-02-28T04:26:39;42.90;;;24.03;;
7767;SDS011;3928;42.626;23.382;2023-02-28T04:29:09;37.77;;;24.00;;
7767;SDS011;3928;42.626;23.382;2023-02-28T04:31:36;38.97;;;23.60;;
7767;SDS011;3928;42.626;23.382;2023-02-28T04:34:03;39.60;;;22.87;;
7767;SDS011;3928;42.626;23.382;2023-02-28T04:36:31;35.67;;;22.00;;
7767;SDS011;3928;42.626;23.382;2023-02-28T04:38:57;36.77;;;22.10;;
7767;SDS011;3928;42.626;23.382;2023-02-28T04:41:26;34.97;;;21.73;;
7767;SDS011;3928;42.626;23.382;2023-02-28T04:43:52;37.03;;;21.50;;
7767;SDS011;3928;42.626;23.382;2023-02-28T04:46:21;35.73;;;21.30;;
7767;SDS011;3928;42.626;23.382;2023-02-28T04:48:48;37.10;;;21.50;;
7767;SDS011;3928;42.626;23.382;2023-02-28T04:51:17;35.07;;;20.70;;
7767;SDS011;3928;42.626;23.382;2023-02-28T04:53:45;45.87;;;23.40;;
7767;SDS011;3928;42.626;23.382;2023-02-28T04:56:13;36.07;;;22.10;;
7767;SDS011;3928;42.626;23.382;2023-02-28T04:58:43;44.37;;;21.80;;
7767;SDS011;3928;42.626;23.382;2023-02-28T05:01:17;33.27;;;20.57;;
7767;SDS011;3928;42.626;23.382;2023-02-28T05:03:46;32.67;;;20.57;;
7767;SDS011;3928;42.626;23.382;2023-02-28T05:06:13;31.90;;;21.00;;
7767;SDS011;3928;42.626;23.382;2023-02-28T05:08:40;38.67;;;25.37;;
7767;SDS011;3928;42.626;23.382;2023-02-28T05:11:10;43.53;;;26.50;;
7767;SDS011;3928;42.626;23.382;2023-02-28T05:13:42;47.57;;;21.40;;
7767;SDS011;3928;42.626;23.382;2023-02-28T05:16:09;37.50;;;21.37;;
7767;SDS011;3928;42.626;23.382;2023-02-28T05:18:36;35.93;;;22.57;;
7767;SDS011;3928;42.626;23.382;2023-02-28T05:21:03;52.73;;;30.43;;
7767;SDS011;3928;42.626;23.382;2023-02-28T05:23:30;33.27;;;22.83;;
7767;SDS011;3928;42.626;23.382;2023-02-28T05:25:57;33.37;;;21.07;;
7767;SDS011;3928;42.626;23.382;2023-02-28T05:28:24;38.27;;;22.20;;
7767;SDS011;3928;42.626;23.382;2023-02-28T05:30:52;33.13;;;21.30;;
7767;SDS011;3928;42.626;23.382;2023-02-28T05:33:19;32.03;;;20.83;;
7767;SDS011;3928;42.626;23.382;2023-02-28T05:35:45;30.87;;;20.17;;
7767;SDS011;3928;42.626;23.382;2023-02-28T05:38:12;30.80;;;21.53;;
7767;SDS011;3928;42.626;23.382;2023-02-28T05:40:39;33.20;;;20.53;;
7767;SDS011;3928;42.626;23.382;2023-02-28T05:43:07;38.17;;;20.70;;
7767;SDS011;3928;42.626;23.382;2023-02-28T05:45:37;30.63;;;20.13;;
7767;SDS011;3928;42.626;23.382;2023-02-28T05:48:05;29.97;;;21.23;;
7767;SDS011;3928;42.626;23.382;2023-02-28T05:50:32;33.20;;;21.80;;
7767;SDS011;3928;42.626;23.382;2023-02-28T05:52:59;30.50;;;21.40;;
7767;SDS011;3928;42.626;23.382;2023-02-28T05:55:26;35.60;;;21.67;;
7767;SDS011;3928;42.626;23.382;2023-02-28T05:57:52;33.37;;;21.87;;
7767;SDS011;3928;42.626;23.382;2023-02-28T06:00:19;35.37;;;21.63;;
7767;SDS011;3928;42.626;23.382;2023-02-28T06:02:46;33.50;;;21.83;;
7767;SDS011;3928;42.626;23.382;2023-02-28T06:05:15;34.47;;;20.87;;
7767;SDS011;3928;42.626;23.382;2023-02-28T06:07:43;34.50;;;21.50;;
7767;SDS011;3928;42.626;23.382;2023-02-28T06:10:11;37.23;;;23.10;;
7767;SDS011;3928;42.626;23.382;2023-02-28T06:12:38;35.97;;;22.23;;
7767;SDS011;3928;42.626;23.382;2023-02-28T06:15:07;33.67;;;22.63;;
7767;SDS011;3928;42.626;23.382;2023-02-28T06:17:36;36.30;;;20.80;;
7767;SDS011;3928;42.626;23.382;2023-02-28T06:20:04;32.97;;;20.10;;
7767;SDS011;3928;42.626;23.382;2023-02-28T06:22:33;28.07;;;19.00;;
7767;SDS011;3928;42.626;23.382;2023-02-28T06:25:00;28.03;;;18.33;;
7767;SDS011;3928;42.626;23.382;2023-02-28T06:27:27;27.03;;;17.70;;
7767;SDS011;3928;42.626;23.382;2023-02-28T06:29:54;25.07;;;17.10;;
7767;SDS011;3928;42.626;23.382;2023-02-28T06:32:21;22.73;;;16.40;;
7767;SDS011;3928;42.626;23.382;2023-02-28T06:34:48;28.00;;;18.57;;
7767;SDS011;3928;42.626;23.382;2023-02-28T06:37:15;25.67;;;18.33;;
7767;SDS011;3928;42.626;23.382;2023-02-28T06:39:44;56.93;;;38.90;;
7767;SDS011;3928;42.626;23.382;2023-02-28T06:42:10;33.17;;;23.23;;
7767;SDS011;3928;42.626;23.382;2023-02-28T06:44:38;35.33;;;22.60;;
7767;SDS011;3928;42.626;23.382;2023-02-28T06:47:05;32.80;;;21.60;;
7767;SDS011;3928;42.626;23.382;2023-02-28T06:49:32;31.93;;;20.30;;
7767;SDS011;3928;42.626;23.382;2023-02-28T06:52:01;30.20;;;21.00;;
7767;SDS011;3928;42.626;23.382;2023-02-28T06:54:28;31.27;;;19.60;;
7767;SDS011;3928;42.626;23.382;2023-02-28T06:56:56;33.33;;;23.53;;
7767;SDS011;3928;42.626;23.382;2023-02-28T06:59:24;41.87;;;28.80;;
7767;SDS011;3928;42.626;23.382;2023-02-28T07:01:51;48.83;;;31.20;;
7767;SDS011;3928;42.626;23.382;2023-02-28T07:04:17;33.00;;;21.90;;
7767;SDS011;3928;42.626;23.382;2023-02-28T07:06:44;35.00;;;19.40;;
7767;SDS011;3928;42.626;23.382;2023-02-28T07:09:11;30.93;;;19.83;;
7767;SDS011;3928;42.626;23.382;2023-02-28T07:11:39;31.37;;;19.07;;
7767;SDS011;3928;42.626;23.382;2023-02-28T07:14:09;26.17;;;18.80;;
7767;SDS011;3928;42.626;23.382;2023-02-28T07:16:36;33.47;;;23.20;;
7767;SDS011;3928;42.626;23.382;2023-02-28T07:19:02;28.67;;;19.73;;
7767;SDS011;3928;42.626;23.382;2023-02-28T07:21:29;29.90;;;20.50;;
7767;SDS011;3928;42.626;23.382;2023-02-28T07:23:56;70.17;;;43.20;;
7767;SDS011;3928;42.626;23.382;2023-02-28T07:26:24;32.07;;;18.87;;
7767;SDS011;3928;42.626;23.382;2023-02-28T07:28:51;30.60;;;18.57;;
7767;SDS011;3928;42.626;23.382;2023-02-28T07:31:20;27.17;;;18.20;;
7767;SDS011;3928;42.626;23.382;2023-02-28T07:33:47;31.17;;;18.10;;
7767;SDS011;3928;42.626;23.382;2023-02-28T07:36:16;30.80;;;19.93;;
7767;SDS011;3928;42.626;23.382;2023-02-28T07:38:45;37.33;;;21.80;;
7767;SDS011;3928;42.626;23.382;2023-02-28T07:41:13;54.03;;;31.93;;
7767;SDS011;3928;42.626;23.382;2023-02-28T07:43:41;39.07;;;22.00;;
7767;SDS011;3928;42.626;23.382;2023-02-28T07:46:08;29.97;;;20.87;;
7767;SDS011;3928;42.626;23.382;2023-02-28T07:48:38;28.90;;;18.97;;
7767;SDS011;3928;42.626;23.382;2023-02-28T07:51:04;31.03;;;20.87;;
7767;SDS011;3928;42.626;23.382;2023-02-28T07:53:31;32.97;;;20.57;;
7767;SDS011;3928;42.626;23.382;2023-02-28T07:56:00;27.97;;;21.27;;
7767;SDS011;3928;42.626;23.382;2023-02-28T07:58:28;33.70;;;19.00;;
7767;SDS011;3928;42.626;23.382;2023-02-28T08:00:56;25.73;;;18.97;;
7767;SDS011;3928;42.626;23.382;2023-02-28T08:03:23;28.83;;;19.17;;
7767;SDS011;3928;42.626;23.382;2023-02-28T08:05:52;34.13;;;20.03;;
7767;SDS011;3928;42.626;23.382;2023-02-28T08:08:19;31.37;;;20.80;;
7767;SDS011;3928;42.626;23.382;2023-02-28T08:10:45;31.53;;;19.53;;
7767;SDS011;3928;42.626;23.382;2023-02-28T08:13:12;31.43;;;21.03;;
7767;SDS011;3928;42.626;23.382;2023-02-28T08:15:40;30.90;;;21.17;;
7767;SDS011;3928;42.626;23.382;2023-02-28T08:18:07;34.53;;;21.83;;
7767;SDS011;3928;42.626;23.382;2023-02-28T08:20:34;33.17;;;20.97;;
7767;SDS011;3928;42.626;23.382;2023-02-28T08:23:02;35.23;;;20.30;;
7767;SDS011;3928;42.626;23.382;2023-02-28T08:25:29;31.53;;;19.80;;
7767;SDS011;3928;42.626;23.382;2023-02-28T08:27:56;33.03;;;18.93;;
7767;SDS011;3928;42.626;23.382;2023-02-28T08:30:23;31.20;;;19.47;;
7767;SDS011;3928;42.626;23.382;2023-02-28T08:32:50;35.43;;;20.40;;
7767;SDS011;3928;42.626;23.382;2023-02-28T08:35:17;39.80;;;20.13;;
7767;SDS011;3928;42.626;23.382;2023-02-28T08:37:43;32.73;;;22.37;;
7767;SDS011;3928;42.626;23.382;2023-02-28T08:40:12;31.80;;;19.37;;
7767;SDS011;3928;42.626;23.382;2023-02-28T08:42:43;33.63;;;19.20;;
7767;SDS011;3928;42.626;23.382;2023-02-28T08:45:10;31.13;;;17.53;;
7767;SDS011;3928;42.626;23.382;2023-02-28T08:47:37;24.90;;;16.37;;
7767;SDS011;3928;42.626;23.382;2023-02-28T08:50:04;20.73;;;14.70;;
7767;SDS011;3928;42.626;23.382;2023-02-28T08:52:31;21.93;;;14.27;;
7767;SDS011;3928;42.626;23.382;2023-02-28T08:54:58;24.67;;;14.23;;
7767;SDS011;3928;42.626;23.382;2023-02-28T08:57:26;21.93;;;10.33;;
7767;SDS011;3928;42.626;23.382;2023-02-28T08:59:53;17.77;;;9.07;;
7767;SDS011;3928;42.626;23.382;2023-02-28T09:02:20;25.70;;;9.60;;
7767;SDS011;3928;42.626;23.382;2023-02-28T09:04:47;13.77;;;8.30;;
7767;SDS011;3928;42.626;23.382;2023-02-28T09:07:13;22.53;;;10.20;;
7767;SDS011;3928;42.626;23.382;2023-02-28T09:09:40;15.77;;;9.07;;
7767;SDS011;3928;42.626;23.382;2023-02-28T09:12:19;15.30;;;9.70;;
7767;SDS011;3928;42.626;23.382;2023-02-28T09:14:48;18.10;;;9.40;;
7767;SDS011;3928;42.626;23.382;2023-02-28T09:17:14;21.67;;;10.13;;
7767;SDS011;3928;42.626;23.382;2023-02-28T09:19:41;21.33;;;9.57;;
7767;SDS011;3928;42.626;23.382;2023-02-28T09:22:09;31.30;;;15.83;;
7767;SDS011;3928;42.626;23.382;2023-02-28T09:24:36;29.47;;;16.13;;
7767;SDS011;3928;42.626;23.382;2023-02-28T09:27:04;19.70;;;9.93;;
7767;SDS011;3928;42.626;23.382;2023-02-28T09:29:31;15.33;;;9.93;;
7767;SDS011;3928;42.626;23.382;2023-02-28T09:32:00;16.90;;;10.17;;
7767;SDS011;3928;42.626;23.382;2023-02-28T09:34:30;26.07;;;11.23;;
7767;SDS011;3928;42.626;23.382;2023-02-28T09:36:57;21.00;;;10.67;;
7767;SDS011;3928;42.626;23.382;2023-02-28T09:39:24;23.90;;;9.60;;
7767;SDS011;3928;42.626;23.382;2023-02-28T09:41:52;29.83;;;10.77;;
7767;SDS011;3928;42.626;23.382;2023-02-28T09:44:22;21.10;;;10.10;;
7767;SDS011;3928;42.626;23.382;2023-02-28T09:46:56;15.43;;;9.90;;
7767;SDS011;3928;42.626;23.382;2023-02-28T09:49:28;20.87;;;9.93;;
7767;SDS011;3928;42.626;23.382;2023-02-28T09:52:03;25.90;;;10.33;;
7767;SDS011;3928;42.626;23.382;2023-02-28T09:54:34;18.27;;;9.90;;
7767;SDS011;3928;42.626;23.382;2023-02-28T09:57:04;17.33;;;10.40;;
7767;SDS011;3928;42.626;23.382;2023-02-28T10:02:40;17.03;;;10.07;;
7767;SDS011;3928;42.626;23.382;2023-02-28T10:05:17;22.00;;;9.60;;
7767;SDS011;3928;42.626;23.382;2023-02-28T10:07:50;21.80;;;9.67;;
7767;SDS011;3928;42.626;23.382;2023-02-28T10:10:27;28.80;;;10.43;;
7767;SDS011;3928;42.626;23.382;2023-02-28T10:13:00;19.23;;;10.07;;
7767;SDS011;3928;42.626;23.382;2023-02-28T10:15:31;16.45;;;10.63;;
7767;SDS011;3928;42.626;23.382;2023-02-28T10:18:01;26.63;;;12.63;;
7767;SDS011;3928;42.626;23.382;2023-02-28T10:20:33;27.47;;;13.80;;
7767;SDS011;3928;42.626;23.382;2023-02-28T10:23:04;24.17;;;12.32;;
7767;SDS011;3928;42.626;23.382;2023-02-28T10:25:39;19.70;;;9.53;;
7767;SDS011;3928;42.626;23.382;2023-02-28T10:28:09;22.35;;;10.00;;
7767;SDS011;3928;42.626;23.382;2023-02-28T10:30:39;19.50;;;8.55;;
7767;SDS011;3928;42.626;23.382;2023-02-28T10:33:13;20.83;;;9.20;;
7767;SDS011;3928;42.626;23.382;2023-02-28T10:35:46;14.47;;;8.90;;
7767;SDS011;3928;42.626;23.382;2023-02-28T10:38:16;19.50;;;9.37;;
7767;SDS011;3928;42.626;23.382;2023-02-28T10:40:44;18.97;;;9.70;;
7767;SDS011;3928;42.626;23.382;2023-02-28T10:43:21;30.13;;;9.55;;
7767;SDS011;3928;42.626;23.382;2023-02-28T10:45:54;19.98;;;9.18;;
7767;SDS011;3928;42.626;23.382;2023-02-28T10:48:27;20.70;;;9.82;;
7767;SDS011;3928;42.626;23.382;2023-02-28T10:50:59;17.77;;;9.60;;
7767;SDS011;3928;42.626;23.382;2023-02-28T10:53:31;19.80;;;9.15;;
7767;SDS011;3928;42.626;23.382;2023-02-28T10:56:01;25.85;;;9.52;;
7767;SDS011;3928;42.626;23.382;2023-02-28T10:58:30;20.80;;;10.35;;
7767;SDS011;3928;42.626;23.382;2023-02-28T11:00:59;19.30;;;10.30;;
7767;SDS011;3928;42.626;23.382;2023-02-28T11:03:30;28.88;;;10.43;;
7767;SDS011;3928;42.626;23.382;2023-02-28T11:06:04;17.80;;;9.75;;
7767;SDS011;3928;42.626;23.382;2023-02-28T11:08:37;17.30;;;9.80;;
7767;SDS011;3928;42.626;23.382;2023-02-28T11:11:13;20.42;;;9.63;;
7767;SDS011;3928;42.626;23.382;2023-02-28T11:13:42;35.50;;;21.73;;
7767;SDS011;3928;42.626;23.382;2023-02-28T11:16:12;27.58;;;12.50;;
7767;SDS011;3928;42.626;23.382;2023-02-28T11:18:41;26.08;;;12.15;;
7767;SDS011;3928;42.626;23.382;2023-02-28T11:21:16;19.63;;;11.32;;
7767;SDS011;3928;42.626;23.382;2023-02-28T11:23:46;26.52;;;13.73;;
7767;SDS011;3928;42.626;23.382;2023-02-28T11:26:15;19.45;;;10.57;;
7767;SDS011;3928;42.626;23.382;2023-02-28T11:29:03;23.63;;;10.48;;
7767;SDS011;3928;42.626;23.382;2023-02-28T11:31:37;20.08;;;10.50;;
7767;SDS011;3928;42.626;23.382;2023-02-28T11:34:10;25.77;;;13.43;;
7767;SDS011;3928;42.626;23.382;2023-02-28T11:36:52;23.73;;;9.98;;
7767;SDS011;3928;42.626;23.382;2023-02-28T11:39:21;20.08;;;9.55;;
7767;SDS011;3928;42.626;23.382;2023-02-28T11:44:41;20.98;;;10.40;;
7767;SDS011;3928;42.626;23.382;2023-02-28T11:47:23;16.70;;;10.18;;
7767;SDS011;3928;42.626;23.382;2023-02-28T11:50:04;18.15;;;11.10;;
7767;SDS011;3928;42.626;23.382;2023-02-28T11:52:43;22.25;;;10.63;;
7767;SDS011;3928;42.626;23.382;2023-02-28T11:55:16;26.67;;;12.25;;
7767;SDS011;3928;42.626;23.382;2023-02-28T11:57:52;24.75;;;11.43;;
7767;SDS011;3928;42.626;23.382;2023-02-28T12:00:42;19.90;;;11.27;;
7767;SDS011;3928;42.626;23.382;2023-02-28T12:03:23;15.90;;;10.30;;
7767;SDS011;3928;42.626;23.382;2023-02-28T12:05:58;22.02;;;12.35;;
7767;SDS011;3928;42.626;23.382;2023-02-28T12:08:46;19.45;;;11.63;;
7767;SDS011;3928;42.626;23.382;2023-02-28T12:11:24;25.50;;;12.55;;
7767;SDS011;3928;42.626;23.382;2023-02-28T12:14:14;26.42;;;11.32;;
7767;SDS011;3928;42.626;23.382;2023-02-28T12:16:57;24.10;;;11.63;;
7767;SDS011;3928;42.626;23.382;2023-02-28T12:19:29;23.80;;;11.75;;
7767;SDS011;3928;42.626;23.382;2023-02-28T12:22:13;25.00;;;11.65;;
7767;SDS011;3928;42.626;23.382;2023-02-28T12:27:46;25.10;;;13.50;;
7767;SDS011;3928;42.626;23.382;2023-02-28T12:30:16;26.17;;;11.95;;
7767;SDS011;3928;42.626;23.382;2023-02-28T12:32:48;25.73;;;11.20;;
7767;SDS011;3928;42.626;23.382;2023-02-28T12:35:19;21.88;;;13.32;;
7767;SDS011;3928;42.626;23.382;2023-02-28T12:37:51;30.25;;;12.02;;
7767;SDS011;3928;42.626;23.382;2023-02-28T12:40:25;17.95;;;11.35;;
7767;SDS011;3928;42.626;23.382;2023-02-28T12:42:59;26.45;;;14.80;;
7767;SDS011;3928;42.626;23.382;2023-02-28T12:45:31;23.30;;;12.70;;
7767;SDS011;3928;42.626;23.382;2023-02-28T12:48:08;24.38;;;12.82;;
7767;SDS011;3928;42.626;23.382;2023-02-28T12:50:39;37.90;;;22.20;;
7767;SDS011;3928;42.626;23.382;2023-02-28T12:53:08;35.13;;;21.10;;
7767;SDS011;3928;42.626;23.382;2023-02-28T12:55:43;24.20;;;13.38;;
7767;SDS011;3928;42.626;23.382;2023-02-28T12:58:16;23.13;;;12.18;;
7767;SDS011;3928;42.626;23.382;2023-02-28T13:00:58;26.40;;;12.18;;
7767;SDS011;3928;42.626;23.382;2023-02-28T13:03:58;25.15;;;13.23;;
7767;SDS011;3928;42.626;23.382;2023-02-28T13:06:45;15.70;;;11.68;;
7767;SDS011;3928;42.626;23.382;2023-02-28T13:09:26;21.20;;;11.87;;
7767;SDS011;3928;42.626;23.382;2023-02-28T13:11:56;23.48;;;11.75;;
7767;SDS011;3928;42.626;23.382;2023-02-28T13:14:25;18.80;;;11.43;;
7767;SDS011;3928;42.626;23.382;2023-02-28T13:17:09;24.93;;;12.50;;
7767;SDS011;3928;42.626;23.382;2023-02-28T13:19:40;22.00;;;11.15;;
7767;SDS011;3928;42.626;23.382;2023-02-28T13:22:16;21.60;;;11.40;;
7767;SDS011;3928;42.626;23.382;2023-02-28T13:24:46;19.00;;;10.48;;
7767;SDS011;3928;42.626;23.382;2023-02-28T13:31:03;22.45;;;12.07;;
7767;SDS011;3928;42.626;23.382;2023-02-28T13:36:28;18.02;;;10.95;;
7767;SDS011;3928;42.626;23.382;2023-02-28T13:38:57;15.52;;;10.45;;
7767;SDS011;3928;42.626;23.382;2023-02-28T13:41:43;24.23;;;11.60;;
7767;SDS011;3928;42.626;23.382;2023-02-28T13:44:11;18.73;;;11.73;;
7767;SDS011;3928;42.626;23.382;2023-02-28T13:49:47;25.92;;;10.73;;
7767;SDS011;3928;42.626;23.382;2023-02-28T13:52:17;24.50;;;11.73;;
7767;SDS011;3928;42.626;23.382;2023-02-28T13:54:55;26.58;;;11.43;;
7767;SDS011;3928;42.626;23.382;2023-02-28T13:57:41;22.30;;;11.87;;
7767;SDS011;3928;42.626;23.382;2023-02-28T14:00:23;23.97;;;11.13;;
7767;SDS011;3928;42.626;23.382;2023-02-28T14:03:12;27.57;;;15.87;;
7767;SDS011;3928;42.626;23.382;2023-02-28T14:05:49;24.67;;;11.17;;
7767;SDS011;3928;42.626;23.382;2023-02-28T14:08:38;23.77;;;12.37;;
7767;SDS011;3928;42.626;23.382;2023-02-28T14:11:24;19.27;;;11.53;;
7767;SDS011;3928;42.626;23.382;2023-02-28T14:13:58;27.23;;;13.80;;
7767;SDS011;3928;42.626;23.382;2023-02-28T14:16:26;20.43;;;11.63;;
7767;SDS011;3928;42.626;23.382;2023-02-28T14:19:01;26.67;;;13.57;;
7767;SDS011;3928;42.626;23.382;2023-02-28T14:21:36;26.73;;;13.37;;
7767;SDS011;3928;42.626;23.382;2023-02-28T14:24:16;28.03;;;14.10;;
7767;SDS011;3928;42.626;23.382;2023-02-28T14:30:10;24.83;;;13.30;;
7767;SDS011;3928;42.626;23.382;2023-02-28T14:32:49;25.23;;;13.53;;
7767;SDS011;3928;42.626;23.382;2023-02-28T14:35:35;25.53;;;14.03;;
7767;SDS011;3928;42.626;23.382;2023-02-28T14:38:13;26.13;;;13.50;;
7767;SDS011;3928;42.626;23.382;2023-02-28T14:40:47;20.83;;;12.77;;
7767;SDS011;3928;42.626;23.382;2023-02-28T14:43:21;26.30;;;12.27;;
7767;SDS011;3928;42.626;23.382;2023-02-28T14:45:50;27.00;;;13.90;;
7767;SDS011;3928;42.626;23.382;2023-02-28T14:48:19;25.30;;;14.13;;
7767;SDS011;3928;42.626;23.382;2023-02-28T14:50:48;24.33;;;13.37;;
7767;SDS011;3928;42.626;23.382;2023-02-28T14:53:18;24.33;;;13.87;;
7767;SDS011;3928;42.626;23.382;2023-02-28T14:55:48;25.53;;;13.30;;
7767;SDS011;3928;42.626;23.382;2023-02-28T14:58:22;25.83;;;13.77;;
7767;SDS011;3928;42.626;23.382;2023-02-28T15:00:50;24.90;;;13.20;;
7767;SDS011;3928;42.626;23.382;2023-02-28T15:03:19;27.00;;;15.13;;
7767;SDS011;3928;42.626;23.382;2023-02-28T15:05:52;23.77;;;12.80;;
7767;SDS011;3928;42.626;23.382;2023-02-28T15:08:20;23.13;;;12.90;;
7767;SDS011;3928;42.626;23.382;2023-02-28T15:10:52;26.20;;;13.30;;
7767;SDS011;3928;42.626;23.382;2023-02-28T15:13:21;25.43;;;12.33;;
7767;SDS011;3928;42.626;23.382;2023-02-28T15:15:51;21.60;;;11.87;;
7767;SDS011;3928;42.626;23.382;2023-02-28T15:18:25;20.23;;;12.17;;
7767;SDS011;3928;42.626;23.382;2023-02-28T15:21:00;22.33;;;12.30;;
7767;SDS011;3928;42.626;23.382;2023-02-28T15:23:30;17.97;;;11.17;;
7767;SDS011;3928;42.626;23.382;2023-02-28T15:26:00;22.80;;;11.70;;
7767;SDS011;3928;42.626;23.382;2023-02-28T15:28:27;18.60;;;11.70;;
7767;SDS011;3928;42.626;23.382;2023-02-28T15:30:56;27.87;;;16.10;;
7767;SDS011;3928;42.626;23.382;2023-02-28T15:33:25;22.00;;;11.90;;